RYR3353 LPPR-GMAD
Flight info
| Callsign | RYR3353 |
|---|---|
| Flight time | 1h 51m |
| Altitude | 41000 |
| Route | MANIK DCT AMSEL UR722 CSD UR975 EKTAL |
| Aircraft | B738/M-SDE3FGILRWY/SB1 |
Departure
| Time | 2026-05-03 20:37 |
|---|---|
| Airport | Francisco de Sá Carneiro Airport (LPPR) |
Arrival
| Time | 2026-05-03 22:28 |
|---|---|
| Airport | Al Massira Airport (GMAD) |
| Time | Latitude | Longitude | Altitude | Speed | Heading |
|---|---|---|---|---|---|
| 2026-05-03 20:15 | 41.23902 | -8.67386 | 242 ft | 0 kts | 124° |
| 2026-05-03 20:28 | 41.23903 | -8.67387 | 242 ft | 1 kts | 124° |
| 2026-05-03 20:28 | 41.23915 | -8.67412 | 241 ft | 3 kts | 124° |
| 2026-05-03 20:28 | 41.23926 | -8.67434 | 240 ft | 3 kts | 130° |
| 2026-05-03 20:28 | 41.23942 | -8.67451 | 239 ft | 4 kts | 177° |
| 2026-05-03 20:29 | 41.23963 | -8.67444 | 240 ft | 4 kts | 214° |
| 2026-05-03 20:29 | 41.23976 | -8.67432 | 240 ft | 1 kts | 214° |
| 2026-05-03 20:32 | 41.23972 | -8.67436 | 240 ft | 2 kts | 214° |
| 2026-05-03 20:32 | 41.23948 | -8.67458 | 239 ft | 7 kts | 217° |
| 2026-05-03 20:33 | 41.23936 | -8.67509 | 237 ft | 11 kts | 259° |
| 2026-05-03 20:33 | 41.23921 | -8.67609 | 232 ft | 7 kts | 259° |
| 2026-05-03 20:33 | 41.23910 | -8.67693 | 227 ft | 10 kts | 259° |
| 2026-05-03 20:33 | 41.23904 | -8.67735 | 226 ft | 0 kts | 259° |
| 2026-05-03 20:35 | 41.23904 | -8.67736 | 226 ft | 0 kts | 259° |
| 2026-05-03 20:35 | 41.23901 | -8.67753 | 223 ft | 6 kts | 259° |
| 2026-05-03 20:36 | 41.23881 | -8.67837 | 222 ft | 11 kts | 235° |
| 2026-05-03 20:36 | 41.23884 | -8.67883 | 222 ft | 2 kts | 342° |
| 2026-05-03 20:36 | 41.23887 | -8.67883 | 222 ft | 0 kts | 348° |
| 2026-05-03 20:36 | 41.23887 | -8.67884 | 222 ft | 1 kts | 348° |
| 2026-05-03 20:37 | 41.23950 | -8.67901 | 220 ft | 33 kts | 349° |
| 2026-05-03 20:37 | 41.24428 | -8.68027 | 213 ft | 105 kts | 349° |
| 2026-05-03 20:37 | 41.25343 | -8.68278 | 215 ft | 159 kts | 347° |
| 2026-05-03 20:37 | 41.26454 | -8.68568 | 846 ft | 161 kts | 348° |
| 2026-05-03 20:38 | 41.27543 | -8.68847 | 1713 ft | 158 kts | 347° |
| 2026-05-03 20:38 | 41.28715 | -8.69152 | 2056 ft | 186 kts | 347° |
| 2026-05-03 20:38 | 41.30034 | -8.69501 | 2464 ft | 199 kts | 347° |
| 2026-05-03 20:38 | 41.31423 | -8.69876 | 2950 ft | 206 kts | 346° |
| 2026-05-03 20:39 | 41.32844 | -8.70267 | 3573 ft | 213 kts | 346° |
| 2026-05-03 20:39 | 41.34389 | -8.70698 | 3826 ft | 239 kts | 347° |
| 2026-05-03 20:39 | 41.36061 | -8.71165 | 4282 ft | 254 kts | 347° |
| 2026-05-03 20:39 | 41.37812 | -8.71655 | 4988 ft | 259 kts | 347° |
| 2026-05-03 20:40 | 41.39516 | -8.72409 | 5789 ft | 258 kts | 327° |
| 2026-05-03 20:40 | 41.40821 | -8.74025 | 6595 ft | 260 kts | 304° |
| 2026-05-03 20:40 | 41.41571 | -8.76212 | 7363 ft | 262 kts | 282° |
| 2026-05-03 20:40 | 41.41571 | -8.78658 | 8145 ft | 265 kts | 261° |
| 2026-05-03 20:41 | 41.40911 | -8.80963 | 8923 ft | 273 kts | 234° |
| 2026-05-03 20:41 | 41.39464 | -8.82564 | 9756 ft | 280 kts | 208° |
| 2026-05-03 20:41 | 41.37567 | -8.83291 | 10458 ft | 292 kts | 187° |
| 2026-05-03 20:41 | 41.35435 | -8.83156 | 10681 ft | 320 kts | 176° |
| 2026-05-03 20:42 | 41.33176 | -8.82757 | 10969 ft | 339 kts | 174° |
| 2026-05-03 20:42 | 41.30812 | -8.82274 | 11614 ft | 346 kts | 173° |
| 2026-05-03 20:42 | 41.28421 | -8.81772 | 12424 ft | 348 kts | 173° |
| 2026-05-03 20:42 | 41.26019 | -8.81275 | 13264 ft | 351 kts | 174° |
| 2026-05-03 20:43 | 41.23593 | -8.80785 | 14074 ft | 354 kts | 174° |
| 2026-05-03 20:43 | 41.21139 | -8.80300 | 14815 ft | 358 kts | 174° |
| 2026-05-03 20:43 | 41.18665 | -8.79819 | 15617 ft | 360 kts | 175° |
| 2026-05-03 20:43 | 41.16172 | -8.79340 | 16404 ft | 363 kts | 175° |
| 2026-05-03 20:44 | 41.13697 | -8.78869 | 17183 ft | 366 kts | 175° |
| 2026-05-03 20:44 | 41.11161 | -8.78388 | 17943 ft | 370 kts | 175° |
| 2026-05-03 20:44 | 41.08600 | -8.77905 | 18622 ft | 374 kts | 175° |
| 2026-05-03 20:44 | 41.06006 | -8.77417 | 19283 ft | 377 kts | 175° |
| 2026-05-03 20:45 | 41.03403 | -8.76927 | 19946 ft | 379 kts | 176° |
| 2026-05-03 20:45 | 41.00777 | -8.76434 | 20593 ft | 382 kts | 176° |
| 2026-05-03 20:45 | 40.98136 | -8.75937 | 21272 ft | 384 kts | 176° |
| 2026-05-03 20:45 | 40.95477 | -8.75439 | 21897 ft | 387 kts | 176° |
| 2026-05-03 20:46 | 40.92797 | -8.74937 | 22498 ft | 390 kts | 176° |
| 2026-05-03 20:46 | 40.90125 | -8.74437 | 23093 ft | 393 kts | 176° |
| 2026-05-03 20:46 | 40.87393 | -8.73927 | 23675 ft | 396 kts | 177° |
| 2026-05-03 20:46 | 40.84643 | -8.73413 | 24168 ft | 399 kts | 177° |
| 2026-05-03 20:47 | 40.81914 | -8.72903 | 24659 ft | 401 kts | 177° |
| 2026-05-03 20:47 | 40.79132 | -8.72383 | 25123 ft | 404 kts | 178° |
| 2026-05-03 20:47 | 40.76334 | -8.71861 | 25609 ft | 407 kts | 178° |
| 2026-05-03 20:47 | 40.73516 | -8.71336 | 26089 ft | 409 kts | 178° |
| 2026-05-03 20:48 | 40.70696 | -8.70811 | 26568 ft | 410 kts | 178° |
| 2026-05-03 20:48 | 40.67892 | -8.70290 | 26993 ft | 413 kts | 178° |
| 2026-05-03 20:48 | 40.65026 | -8.69758 | 27415 ft | 416 kts | 178° |
| 2026-05-03 20:48 | 40.62141 | -8.69222 | 27836 ft | 419 kts | 178° |
| 2026-05-03 20:49 | 40.59238 | -8.68684 | 28252 ft | 421 kts | 178° |
| 2026-05-03 20:49 | 40.56359 | -8.68151 | 28600 ft | 424 kts | 178° |
| 2026-05-03 20:49 | 40.53426 | -8.67608 | 28970 ft | 427 kts | 178° |
| 2026-05-03 20:49 | 40.50467 | -8.67060 | 29383 ft | 429 kts | 178° |
| 2026-05-03 20:50 | 40.47495 | -8.66510 | 29758 ft | 432 kts | 178° |
| 2026-05-03 20:50 | 40.44506 | -8.65958 | 30110 ft | 434 kts | 178° |
| 2026-05-03 20:50 | 40.41490 | -8.65402 | 30410 ft | 437 kts | 178° |
| 2026-05-03 20:50 | 40.38506 | -8.64851 | 30704 ft | 439 kts | 178° |
| 2026-05-03 20:51 | 40.35473 | -8.64292 | 31065 ft | 439 kts | 178° |
| 2026-05-03 20:51 | 40.32450 | -8.63733 | 31513 ft | 437 kts | 179° |
| 2026-05-03 20:51 | 40.29444 | -8.63177 | 31960 ft | 435 kts | 179° |
| 2026-05-03 20:51 | 40.26442 | -8.62624 | 32345 ft | 434 kts | 179° |
| 2026-05-03 20:52 | 40.23480 | -8.62080 | 32695 ft | 434 kts | 179° |
| 2026-05-03 20:52 | 40.20488 | -8.61531 | 33074 ft | 434 kts | 179° |
| 2026-05-03 20:52 | 40.17501 | -8.60984 | 33476 ft | 433 kts | 179° |
| 2026-05-03 20:52 | 40.14522 | -8.60438 | 33843 ft | 432 kts | 179° |
| 2026-05-03 20:53 | 40.11543 | -8.59892 | 34265 ft | 429 kts | 179° |
| 2026-05-03 20:53 | 40.08587 | -8.59352 | 34554 ft | 429 kts | 179° |
| 2026-05-03 20:53 | 40.05618 | -8.58812 | 34747 ft | 432 kts | 179° |
| 2026-05-03 20:53 | 40.02673 | -8.58277 | 34986 ft | 433 kts | 179° |
| 2026-05-03 20:54 | 39.99672 | -8.57731 | 35285 ft | 432 kts | 179° |
| 2026-05-03 20:54 | 39.93692 | -8.56643 | 35751 ft | 435 kts | 179° |
| 2026-05-03 20:54 | 39.90727 | -8.56103 | 36031 ft | 434 kts | 179° |
| 2026-05-03 20:55 | 39.87738 | -8.55559 | 36342 ft | 433 kts | 179° |
| 2026-05-03 20:55 | 39.84740 | -8.55015 | 36570 ft | 434 kts | 179° |
| 2026-05-03 20:55 | 39.81737 | -8.54472 | 36776 ft | 435 kts | 179° |
| 2026-05-03 20:55 | 39.78768 | -8.53935 | 37022 ft | 436 kts | 179° |
| 2026-05-03 20:56 | 39.75763 | -8.53391 | 37281 ft | 436 kts | 179° |
| 2026-05-03 20:56 | 39.72751 | -8.52846 | 37488 ft | 437 kts | 179° |
| 2026-05-03 20:56 | 39.69732 | -8.52301 | 37704 ft | 437 kts | 179° |
| 2026-05-03 20:56 | 39.66720 | -8.51757 | 38002 ft | 436 kts | 179° |
| 2026-05-03 20:57 | 39.63708 | -8.51213 | 38225 ft | 436 kts | 179° |
| 2026-05-03 20:57 | 39.60692 | -8.50670 | 38404 ft | 438 kts | 179° |
| 2026-05-03 20:57 | 39.57703 | -8.50133 | 38606 ft | 438 kts | 179° |
| 2026-05-03 20:57 | 39.54671 | -8.49587 | 38826 ft | 438 kts | 179° |
| 2026-05-03 20:58 | 39.51646 | -8.49043 | 38989 ft | 438 kts | 179° |
| 2026-05-03 20:58 | 39.48652 | -8.48506 | 39111 ft | 439 kts | 179° |
| 2026-05-03 20:58 | 39.45627 | -8.47962 | 39329 ft | 437 kts | 179° |
| 2026-05-03 20:58 | 39.42608 | -8.47420 | 39500 ft | 437 kts | 179° |
| 2026-05-03 20:59 | 39.39591 | -8.46880 | 39624 ft | 438 kts | 179° |
| 2026-05-03 20:59 | 39.36565 | -8.46340 | 39761 ft | 439 kts | 179° |
| 2026-05-03 20:59 | 39.33534 | -8.45798 | 39937 ft | 438 kts | 179° |
| 2026-05-03 20:59 | 39.30507 | -8.45257 | 40090 ft | 439 kts | 179° |
| 2026-05-03 21:00 | 39.27483 | -8.44718 | 40226 ft | 439 kts | 179° |
| 2026-05-03 21:00 | 39.25466 | -8.44358 | 40303 ft | 439 kts | 179° |
| 2026-05-03 21:00 | 39.21450 | -8.43642 | 40519 ft | 439 kts | 179° |
| 2026-05-03 21:00 | 39.18419 | -8.43103 | 40646 ft | 439 kts | 179° |
| 2026-05-03 21:01 | 39.15381 | -8.42563 | 40763 ft | 440 kts | 179° |
| 2026-05-03 21:01 | 39.12381 | -8.42030 | 40899 ft | 440 kts | 179° |
| 2026-05-03 21:01 | 39.09346 | -8.41491 | 41033 ft | 440 kts | 179° |
| 2026-05-03 21:01 | 39.06301 | -8.40952 | 41051 ft | 442 kts | 179° |
| 2026-05-03 21:02 | 39.00180 | -8.39868 | 41056 ft | 442 kts | 179° |
| 2026-05-03 21:02 | 38.94087 | -8.38788 | 41065 ft | 441 kts | 179° |
| 2026-05-03 21:03 | 38.88045 | -8.37721 | 41066 ft | 440 kts | 179° |
| 2026-05-03 21:03 | 38.81966 | -8.36650 | 41043 ft | 440 kts | 179° |
| 2026-05-03 21:04 | 38.75893 | -8.35582 | 41059 ft | 439 kts | 179° |
| 2026-05-03 21:04 | 38.69877 | -8.34525 | 41063 ft | 438 kts | 179° |
| 2026-05-03 21:05 | 38.63830 | -8.33465 | 41057 ft | 438 kts | 179° |
| 2026-05-03 21:05 | 38.57787 | -8.32408 | 41032 ft | 437 kts | 180° |
| 2026-05-03 21:06 | 38.51751 | -8.31353 | 41048 ft | 437 kts | 180° |
| 2026-05-03 21:06 | 38.45722 | -8.30302 | 41062 ft | 437 kts | 180° |
| 2026-05-03 21:07 | 38.39726 | -8.29258 | 41064 ft | 437 kts | 180° |
| 2026-05-03 21:07 | 38.33683 | -8.28208 | 41051 ft | 437 kts | 180° |
| 2026-05-03 21:08 | 38.27683 | -8.27167 | 41061 ft | 437 kts | 180° |
| 2026-05-03 21:08 | 38.21640 | -8.26120 | 41059 ft | 437 kts | 180° |
| 2026-05-03 21:09 | 38.15600 | -8.25075 | 41062 ft | 438 kts | 180° |
| 2026-05-03 21:09 | 38.09556 | -8.24032 | 41059 ft | 438 kts | 180° |
| 2026-05-03 21:10 | 38.03508 | -8.22989 | 41053 ft | 438 kts | 180° |
| 2026-05-03 21:10 | 37.97499 | -8.21955 | 41061 ft | 438 kts | 180° |
| 2026-05-03 21:11 | 37.91441 | -8.20914 | 41066 ft | 439 kts | 180° |
| 2026-05-03 21:11 | 37.85390 | -8.19875 | 41060 ft | 438 kts | 180° |
| 2026-05-03 21:12 | 37.79340 | -8.18839 | 41069 ft | 438 kts | 180° |
| 2026-05-03 21:12 | 37.73333 | -8.17813 | 41068 ft | 438 kts | 180° |
| 2026-05-03 21:13 | 37.67290 | -8.16782 | 41070 ft | 438 kts | 180° |
| 2026-05-03 21:13 | 37.61245 | -8.15751 | 41066 ft | 437 kts | 181° |
| 2026-05-03 21:14 | 37.55245 | -8.14731 | 41076 ft | 437 kts | 181° |
| 2026-05-03 21:14 | 37.49214 | -8.13707 | 41076 ft | 437 kts | 181° |
| 2026-05-03 21:15 | 37.43208 | -8.12688 | 41029 ft | 437 kts | 181° |
| 2026-05-03 21:15 | 37.37192 | -8.11668 | 41064 ft | 435 kts | 181° |
| 2026-05-03 21:16 | 37.31178 | -8.10651 | 41076 ft | 435 kts | 181° |
| 2026-05-03 21:16 | 37.25171 | -8.09639 | 41061 ft | 435 kts | 181° |
| 2026-05-03 21:17 | 37.20166 | -8.08796 | 41061 ft | 435 kts | 181° |
| 2026-05-03 21:17 | 37.13159 | -8.07618 | 41041 ft | 436 kts | 181° |
| 2026-05-03 21:18 | 37.07174 | -8.06612 | 41040 ft | 436 kts | 181° |
| 2026-05-03 21:18 | 37.02157 | -8.05771 | 41047 ft | 437 kts | 181° |
| 2026-05-03 21:19 | 36.95141 | -8.04596 | 41017 ft | 437 kts | 181° |
| 2026-05-03 21:19 | 36.90090 | -8.03751 | 41041 ft | 436 kts | 181° |
| 2026-05-03 21:20 | 36.84095 | -8.02751 | 41059 ft | 436 kts | 181° |
| 2026-05-03 21:20 | 36.78050 | -8.01744 | 41060 ft | 437 kts | 181° |
| 2026-05-03 21:21 | 36.72051 | -8.00746 | 41037 ft | 437 kts | 181° |
| 2026-05-03 21:21 | 36.66020 | -7.99743 | 41066 ft | 437 kts | 181° |
| 2026-05-03 21:22 | 36.60014 | -7.98747 | 41075 ft | 437 kts | 181° |
| 2026-05-03 21:22 | 36.53979 | -7.97748 | 41076 ft | 437 kts | 181° |
| 2026-05-03 21:23 | 36.47938 | -7.96749 | 41039 ft | 437 kts | 181° |
| 2026-05-03 21:23 | 36.41905 | -7.95753 | 41069 ft | 436 kts | 181° |
| 2026-05-03 21:24 | 36.35913 | -7.94765 | 41080 ft | 436 kts | 181° |
| 2026-05-03 21:24 | 36.29881 | -7.93773 | 41078 ft | 436 kts | 181° |
| 2026-05-03 21:25 | 36.23849 | -7.92782 | 41056 ft | 437 kts | 181° |
| 2026-05-03 21:25 | 36.17867 | -7.91800 | 41077 ft | 436 kts | 181° |
| 2026-05-03 21:26 | 36.11839 | -7.90813 | 41089 ft | 436 kts | 181° |
| 2026-05-03 21:26 | 36.05819 | -7.89828 | 41087 ft | 436 kts | 181° |
| 2026-05-03 21:27 | 35.99810 | -7.88846 | 41086 ft | 436 kts | 181° |
| 2026-05-03 21:27 | 35.93829 | -7.87981 | 41086 ft | 432 kts | 184° |
| 2026-05-03 21:28 | 35.87830 | -7.87454 | 41084 ft | 431 kts | 185° |
| 2026-05-03 21:28 | 35.81858 | -7.86967 | 41086 ft | 431 kts | 185° |
| 2026-05-03 21:29 | 35.75849 | -7.86444 | 41090 ft | 432 kts | 185° |
| 2026-05-03 21:29 | 35.69878 | -7.85905 | 41090 ft | 432 kts | 185° |
| 2026-05-03 21:30 | 35.63865 | -7.85359 | 41093 ft | 432 kts | 185° |
| 2026-05-03 21:30 | 35.57860 | -7.84817 | 41095 ft | 432 kts | 185° |
| 2026-05-03 21:31 | 35.51882 | -7.84278 | 41096 ft | 432 kts | 185° |
| 2026-05-03 21:31 | 35.45874 | -7.83736 | 41093 ft | 432 kts | 185° |
| 2026-05-03 21:32 | 35.39913 | -7.83203 | 41094 ft | 432 kts | 185° |
| 2026-05-03 21:32 | 35.33905 | -7.82693 | 41099 ft | 432 kts | 185° |
| 2026-05-03 21:33 | 35.27896 | -7.82191 | 41101 ft | 432 kts | 185° |
| 2026-05-03 21:33 | 35.21922 | -7.81690 | 41092 ft | 432 kts | 185° |
| 2026-05-03 21:34 | 35.15919 | -7.81185 | 41098 ft | 432 kts | 185° |
| 2026-05-03 21:34 | 35.09913 | -7.80680 | 41096 ft | 432 kts | 185° |
| 2026-05-03 21:35 | 35.03939 | -7.80179 | 41104 ft | 433 kts | 185° |
| 2026-05-03 21:35 | 34.97916 | -7.79674 | 41083 ft | 433 kts | 185° |
| 2026-05-03 21:36 | 34.91899 | -7.79170 | 41095 ft | 433 kts | 185° |
| 2026-05-03 21:36 | 34.85881 | -7.78667 | 41105 ft | 433 kts | 185° |
| 2026-05-03 21:37 | 34.79876 | -7.78166 | 41107 ft | 434 kts | 185° |
| 2026-05-03 21:37 | 34.73855 | -7.77665 | 41067 ft | 434 kts | 185° |
| 2026-05-03 21:38 | 34.67868 | -7.77228 | 41098 ft | 432 kts | 185° |
| 2026-05-03 21:38 | 34.61857 | -7.76821 | 41111 ft | 432 kts | 185° |
| 2026-05-03 21:39 | 34.55835 | -7.76409 | 41108 ft | 432 kts | 185° |
| 2026-05-03 21:39 | 34.49856 | -7.75994 | 41109 ft | 432 kts | 185° |
| 2026-05-03 21:40 | 34.43836 | -7.75574 | 41106 ft | 431 kts | 185° |
| 2026-05-03 21:40 | 34.37860 | -7.75159 | 41110 ft | 431 kts | 185° |
| 2026-05-03 21:41 | 34.31870 | -7.74743 | 41109 ft | 431 kts | 185° |
| 2026-05-03 21:41 | 34.25905 | -7.74330 | 41109 ft | 431 kts | 185° |
| 2026-05-03 21:42 | 34.19918 | -7.73916 | 41106 ft | 430 kts | 185° |
| 2026-05-03 21:42 | 34.13914 | -7.73430 | 41110 ft | 431 kts | 184° |
| 2026-05-03 21:43 | 34.07960 | -7.72860 | 41116 ft | 431 kts | 184° |
| 2026-05-03 21:43 | 34.01972 | -7.72289 | 41113 ft | 431 kts | 184° |
| 2026-05-03 21:44 | 33.95974 | -7.71731 | 41064 ft | 431 kts | 184° |
| 2026-05-03 21:44 | 33.90026 | -7.71183 | 41089 ft | 431 kts | 184° |
| 2026-05-03 21:45 | 33.84043 | -7.70633 | 41094 ft | 430 kts | 184° |
| 2026-05-03 21:45 | 33.78055 | -7.70084 | 41093 ft | 431 kts | 184° |
| 2026-05-03 21:46 | 33.72097 | -7.69537 | 41083 ft | 431 kts | 184° |
| 2026-05-03 21:46 | 33.66106 | -7.68988 | 41071 ft | 431 kts | 185° |
| 2026-05-03 21:47 | 33.60118 | -7.68441 | 41073 ft | 432 kts | 185° |
| 2026-05-03 21:47 | 33.54181 | -7.68184 | 41067 ft | 420 kts | 196° |
| 2026-05-03 21:48 | 33.48676 | -7.69962 | 41073 ft | 402 kts | 212° |
| 2026-05-03 21:48 | 33.43806 | -7.73153 | 41037 ft | 398 kts | 216° |
| 2026-05-03 21:49 | 33.39012 | -7.76387 | 41086 ft | 398 kts | 216° |
| 2026-05-03 21:49 | 33.34151 | -7.79632 | 41099 ft | 399 kts | 216° |
| 2026-05-03 21:50 | 33.29307 | -7.82842 | 41095 ft | 401 kts | 216° |
| 2026-05-03 21:50 | 33.24421 | -7.86071 | 41092 ft | 402 kts | 216° |
| 2026-05-03 21:51 | 33.19513 | -7.89309 | 41084 ft | 402 kts | 216° |
| 2026-05-03 21:51 | 33.14630 | -7.92527 | 41087 ft | 403 kts | 216° |
| 2026-05-03 21:52 | 33.09719 | -7.95759 | 41082 ft | 403 kts | 216° |
| 2026-05-03 21:52 | 33.04783 | -7.99004 | 41080 ft | 403 kts | 216° |
| 2026-05-03 21:53 | 32.99859 | -8.02238 | 41080 ft | 403 kts | 216° |
| 2026-05-03 21:53 | 32.94977 | -8.05439 | 41090 ft | 403 kts | 216° |
| 2026-05-03 21:54 | 32.89850 | -8.08257 | 41094 ft | 408 kts | 208° |
| 2026-05-03 21:54 | 32.84562 | -8.10655 | 41076 ft | 407 kts | 208° |
| 2026-05-03 21:55 | 32.79281 | -8.13086 | 41080 ft | 406 kts | 209° |
| 2026-05-03 21:55 | 32.74021 | -8.15542 | 41081 ft | 405 kts | 209° |
| 2026-05-03 21:56 | 32.68793 | -8.17981 | 41086 ft | 405 kts | 209° |
| 2026-05-03 21:56 | 32.63531 | -8.20430 | 41080 ft | 405 kts | 209° |
| 2026-05-03 21:57 | 32.58317 | -8.22854 | 41082 ft | 404 kts | 209° |
| 2026-05-03 21:57 | 32.53076 | -8.25289 | 41080 ft | 404 kts | 209° |
| 2026-05-03 21:58 | 32.47829 | -8.27724 | 41082 ft | 404 kts | 209° |
| 2026-05-03 21:58 | 32.42625 | -8.30136 | 41076 ft | 404 kts | 209° |
| 2026-05-03 21:59 | 32.37372 | -8.32568 | 41082 ft | 405 kts | 209° |
| 2026-05-03 21:59 | 32.32109 | -8.35002 | 41063 ft | 405 kts | 208° |
| 2026-05-03 22:00 | 32.26884 | -8.37414 | 41080 ft | 406 kts | 208° |
| 2026-05-03 22:00 | 32.21614 | -8.39844 | 41074 ft | 406 kts | 208° |
| 2026-05-03 22:01 | 32.16476 | -8.42204 | 40954 ft | 389 kts | 209° |
| 2026-05-03 22:01 | 32.13953 | -8.43367 | 40380 ft | 389 kts | 209° |
| 2026-05-03 22:01 | 32.11414 | -8.44539 | 39693 ft | 394 kts | 209° |
| 2026-05-03 22:02 | 32.08849 | -8.45755 | 38980 ft | 396 kts | 212° |
| 2026-05-03 22:02 | 32.06342 | -8.47141 | 38197 ft | 398 kts | 213° |
| 2026-05-03 22:02 | 32.03872 | -8.48559 | 37384 ft | 401 kts | 212° |
| 2026-05-03 22:02 | 32.01344 | -8.50026 | 36555 ft | 406 kts | 212° |
| 2026-05-03 22:03 | 31.98782 | -8.51511 | 35732 ft | 411 kts | 211° |
| 2026-05-03 22:03 | 31.96226 | -8.52983 | 35060 ft | 413 kts | 211° |
| 2026-05-03 22:03 | 31.93646 | -8.54459 | 34546 ft | 411 kts | 211° |
| 2026-05-03 22:03 | 31.91078 | -8.55923 | 34080 ft | 408 kts | 210° |
| 2026-05-03 22:04 | 31.88528 | -8.57374 | 33549 ft | 405 kts | 210° |
| 2026-05-03 22:04 | 31.86000 | -8.58811 | 33063 ft | 401 kts | 210° |
| 2026-05-03 22:04 | 31.83522 | -8.60219 | 32578 ft | 398 kts | 210° |
| 2026-05-03 22:04 | 31.81032 | -8.61633 | 32118 ft | 395 kts | 210° |
| 2026-05-03 22:05 | 31.78566 | -8.63034 | 31678 ft | 392 kts | 210° |
| 2026-05-03 22:05 | 31.76122 | -8.64421 | 31208 ft | 389 kts | 210° |
| 2026-05-03 22:05 | 31.73693 | -8.65800 | 30783 ft | 386 kts | 210° |
| 2026-05-03 22:05 | 31.71279 | -8.67170 | 30359 ft | 383 kts | 210° |
| 2026-05-03 22:06 | 31.68879 | -8.68530 | 29904 ft | 381 kts | 210° |
| 2026-05-03 22:06 | 31.67300 | -8.69425 | 29578 ft | 379 kts | 210° |
| 2026-05-03 22:06 | 31.64169 | -8.71198 | 28950 ft | 374 kts | 210° |
| 2026-05-03 22:06 | 31.61830 | -8.72522 | 28508 ft | 371 kts | 210° |
| 2026-05-03 22:07 | 31.59511 | -8.73834 | 28067 ft | 368 kts | 210° |
| 2026-05-03 22:07 | 31.57987 | -8.74696 | 27780 ft | 366 kts | 210° |
| 2026-05-03 22:07 | 31.55695 | -8.75991 | 27357 ft | 364 kts | 210° |
| 2026-05-03 22:07 | 31.52685 | -8.77690 | 26785 ft | 360 kts | 210° |
| 2026-05-03 22:08 | 31.51145 | -8.78536 | 26377 ft | 362 kts | 208° |
| 2026-05-03 22:08 | 31.48815 | -8.79728 | 25714 ft | 367 kts | 207° |
| 2026-05-03 22:08 | 31.46489 | -8.80874 | 25256 ft | 366 kts | 207° |
| 2026-05-03 22:08 | 31.44149 | -8.82019 | 24869 ft | 362 kts | 207° |
| 2026-05-03 22:09 | 31.41831 | -8.83156 | 24494 ft | 359 kts | 207° |
| 2026-05-03 22:09 | 31.39537 | -8.84288 | 24090 ft | 357 kts | 207° |
| 2026-05-03 22:09 | 31.37254 | -8.85421 | 23662 ft | 355 kts | 207° |
| 2026-05-03 22:10 | 31.32736 | -8.87669 | 22749 ft | 350 kts | 207° |
| 2026-05-03 22:10 | 31.30527 | -8.88770 | 22270 ft | 348 kts | 207° |
| 2026-05-03 22:10 | 31.28291 | -8.89884 | 21778 ft | 347 kts | 207° |
| 2026-05-03 22:10 | 31.26075 | -8.90988 | 21361 ft | 344 kts | 207° |
| 2026-05-03 22:11 | 31.23869 | -8.92086 | 20952 ft | 341 kts | 207° |
| 2026-05-03 22:11 | 31.21692 | -8.93169 | 20554 ft | 338 kts | 207° |
| 2026-05-03 22:11 | 31.19533 | -8.94243 | 20153 ft | 335 kts | 207° |
| 2026-05-03 22:11 | 31.17420 | -8.95294 | 19771 ft | 333 kts | 207° |
| 2026-05-03 22:12 | 31.15291 | -8.96352 | 19384 ft | 330 kts | 207° |
| 2026-05-03 22:12 | 31.13179 | -8.97402 | 19008 ft | 329 kts | 207° |
| 2026-05-03 22:12 | 31.11065 | -8.98451 | 18617 ft | 328 kts | 207° |
| 2026-05-03 22:12 | 31.08971 | -8.99491 | 18223 ft | 326 kts | 207° |
| 2026-05-03 22:13 | 31.06906 | -9.00516 | 17796 ft | 325 kts | 206° |
| 2026-05-03 22:13 | 31.04829 | -9.01546 | 17394 ft | 323 kts | 206° |
| 2026-05-03 22:13 | 31.02762 | -9.02569 | 17004 ft | 320 kts | 206° |
| 2026-05-03 22:13 | 31.00714 | -9.03583 | 16608 ft | 318 kts | 206° |
| 2026-05-03 22:14 | 30.98697 | -9.04583 | 16184 ft | 318 kts | 206° |
| 2026-05-03 22:14 | 30.96664 | -9.05593 | 15798 ft | 316 kts | 207° |
| 2026-05-03 22:14 | 30.94649 | -9.06592 | 15419 ft | 313 kts | 206° |
| 2026-05-03 22:14 | 30.92648 | -9.07584 | 15053 ft | 311 kts | 206° |
| 2026-05-03 22:15 | 30.90655 | -9.08572 | 14680 ft | 310 kts | 206° |
| 2026-05-03 22:15 | 30.88696 | -9.09543 | 14307 ft | 308 kts | 206° |
| 2026-05-03 22:15 | 30.86718 | -9.10523 | 13940 ft | 308 kts | 206° |
| 2026-05-03 22:15 | 30.84746 | -9.11500 | 13532 ft | 308 kts | 205° |
| 2026-05-03 22:16 | 30.82774 | -9.12476 | 13144 ft | 307 kts | 205° |
| 2026-05-03 22:16 | 30.80835 | -9.13435 | 12773 ft | 305 kts | 205° |
| 2026-05-03 22:16 | 30.78883 | -9.14401 | 12407 ft | 304 kts | 205° |
| 2026-05-03 22:16 | 30.76933 | -9.15365 | 12035 ft | 303 kts | 205° |
| 2026-05-03 22:17 | 30.74992 | -9.16324 | 11668 ft | 302 kts | 205° |
| 2026-05-03 22:17 | 30.73056 | -9.17280 | 11309 ft | 301 kts | 205° |
| 2026-05-03 22:17 | 30.71129 | -9.18231 | 10952 ft | 300 kts | 204° |
| 2026-05-03 22:17 | 30.69206 | -9.19193 | 10564 ft | 301 kts | 205° |
| 2026-05-03 22:18 | 30.67337 | -9.20162 | 10389 ft | 295 kts | 205° |
| 2026-05-03 22:18 | 30.65484 | -9.21130 | 10231 ft | 286 kts | 205° |
| 2026-05-03 22:18 | 30.63690 | -9.22065 | 10107 ft | 278 kts | 205° |
| 2026-05-03 22:18 | 30.61935 | -9.22977 | 9889 ft | 274 kts | 206° |
| 2026-05-03 22:19 | 30.60198 | -9.23878 | 9589 ft | 272 kts | 205° |
| 2026-05-03 22:19 | 30.58493 | -9.24760 | 9290 ft | 272 kts | 206° |
| 2026-05-03 22:19 | 30.56690 | -9.25402 | 8952 ft | 275 kts | 182° |
| 2026-05-03 22:19 | 30.54844 | -9.24846 | 8689 ft | 278 kts | 150° |
| 2026-05-03 22:20 | 30.53415 | -9.23342 | 8423 ft | 279 kts | 129° |
| 2026-05-03 22:20 | 30.52318 | -9.21480 | 8129 ft | 279 kts | 124° |
| 2026-05-03 22:20 | 30.51192 | -9.19643 | 7820 ft | 279 kts | 129° |
| 2026-05-03 22:20 | 30.49949 | -9.17953 | 7527 ft | 279 kts | 135° |
| 2026-05-03 22:21 | 30.48541 | -9.16401 | 7236 ft | 278 kts | 140° |
| 2026-05-03 22:21 | 30.47017 | -9.15011 | 6921 ft | 279 kts | 145° |
| 2026-05-03 22:21 | 30.45399 | -9.13764 | 6638 ft | 278 kts | 149° |
| 2026-05-03 22:21 | 30.43720 | -9.12665 | 6334 ft | 275 kts | 153° |
| 2026-05-03 22:22 | 30.42000 | -9.11727 | 6039 ft | 272 kts | 158° |
| 2026-05-03 22:22 | 30.40248 | -9.10952 | 5761 ft | 273 kts | 162° |
| 2026-05-03 22:22 | 30.38430 | -9.10323 | 5475 ft | 272 kts | 167° |
| 2026-05-03 22:22 | 30.36599 | -9.09864 | 5343 ft | 266 kts | 171° |
| 2026-05-03 22:23 | 30.34779 | -9.09578 | 5246 ft | 260 kts | 178° |
| 2026-05-03 22:23 | 30.33073 | -9.09949 | 5015 ft | 246 kts | 212° |
| 2026-05-03 22:23 | 30.31976 | -9.11364 | 4842 ft | 236 kts | 249° |
| 2026-05-03 22:23 | 30.31686 | -9.13210 | 4591 ft | 237 kts | 265° |
| 2026-05-03 22:24 | 30.31561 | -9.15124 | 4265 ft | 237 kts | 268° |
| 2026-05-03 22:24 | 30.31550 | -9.17022 | 3954 ft | 234 kts | 271° |
| 2026-05-03 22:24 | 30.31597 | -9.18894 | 3657 ft | 231 kts | 272° |
| 2026-05-03 22:24 | 30.31653 | -9.20736 | 3364 ft | 227 kts | 272° |
| 2026-05-03 22:25 | 30.31706 | -9.22537 | 3088 ft | 220 kts | 271° |
| 2026-05-03 22:25 | 30.31756 | -9.24285 | 2799 ft | 214 kts | 270° |
| 2026-05-03 22:25 | 30.31804 | -9.25964 | 2507 ft | 204 kts | 270° |
| 2026-05-03 22:25 | 30.31851 | -9.27548 | 2250 ft | 196 kts | 268° |
| 2026-05-03 22:26 | 30.31894 | -9.29090 | 1986 ft | 188 kts | 268° |
| 2026-05-03 22:26 | 30.31937 | -9.30575 | 1750 ft | 181 kts | 267° |
| 2026-05-03 22:26 | 30.31978 | -9.31974 | 1509 ft | 168 kts | 267° |
| 2026-05-03 22:26 | 30.32017 | -9.33266 | 1359 ft | 154 kts | 268° |
| 2026-05-03 22:27 | 30.32080 | -9.34478 | 1159 ft | 148 kts | 269° |
| 2026-05-03 22:27 | 30.32125 | -9.35667 | 940 ft | 148 kts | 268° |
| 2026-05-03 22:27 | 30.32146 | -9.36852 | 713 ft | 146 kts | 267° |
| 2026-05-03 22:27 | 30.32184 | -9.38036 | 517 ft | 147 kts | 268° |
| 2026-05-03 22:28 | 30.32217 | -9.39215 | 329 ft | 146 kts | 266° |
| 2026-05-03 22:28 | 30.32241 | -9.40355 | 230 ft | 125 kts | 272° |
| 2026-05-03 22:28 | 30.32261 | -9.41115 | 230 ft | 68 kts | 271° |
| 2026-05-03 22:28 | 30.32270 | -9.41468 | 230 ft | 15 kts | 277° |
| 2026-05-03 22:29 | 30.32344 | -9.41530 | 230 ft | 15 kts | 5° |
| 2026-05-03 22:29 | 30.32444 | -9.41525 | 230 ft | 14 kts | 2° |
| 2026-05-03 22:29 | 30.32538 | -9.41522 | 230 ft | 13 kts | 1° |
| 2026-05-03 22:29 | 30.32629 | -9.41519 | 230 ft | 13 kts | 2° |
| 2026-05-03 22:30 | 30.32718 | -9.41516 | 230 ft | 13 kts | 2° |
| 2026-05-03 22:30 | 30.32801 | -9.41498 | 232 ft | 12 kts | 42° |
| 2026-05-03 22:30 | 30.32818 | -9.41402 | 230 ft | 14 kts | 91° |
| 2026-05-03 22:30 | 30.32815 | -9.41270 | 230 ft | 17 kts | 92° |
| 2026-05-03 22:31 | 30.32812 | -9.41137 | 230 ft | 17 kts | 91° |
| 2026-05-03 22:31 | 30.32808 | -9.41006 | 230 ft | 16 kts | 91° |
| 2026-05-03 22:31 | 30.32820 | -9.40949 | 230 ft | 6 kts | 22° |
| 2026-05-03 22:31 | 30.32858 | -9.40945 | 230 ft | 6 kts | 3° |
| 2026-05-03 22:32 | 30.32879 | -9.40943 | 231 ft | 0 kts | 2° |